createdAt,value
2018-10-05T00:00:21.376Z,73.30
2018-10-05T00:05:50.768Z,73.50
2018-10-05T00:11:20.129Z,73.50
2018-10-05T00:16:49.436Z,73.50
2018-10-05T00:22:19.416Z,73.60
2018-10-05T00:27:48.670Z,73.80
2018-10-05T00:33:17.932Z,73.80
2018-10-05T00:38:47.535Z,73.80
2018-10-05T00:44:16.812Z,73.80
2018-10-05T00:49:46.175Z,73.90
2018-10-05T00:55:15.420Z,74.20
2018-10-05T01:00:51.645Z,74.30
2018-10-05T01:06:20.916Z,74.40
2018-10-05T01:11:52.272Z,74.60
2018-10-05T01:17:21.505Z,74.80
2018-10-05T01:22:50.892Z,74.60
2018-10-05T01:28:20.165Z,74.70
2018-10-05T01:33:49.467Z,74.50
2018-10-05T01:39:18.742Z,74.50
2018-10-05T01:44:48.023Z,74.60
2018-10-05T01:50:17.404Z,74.60
2018-10-05T01:55:55.269Z,74.70
2018-10-05T02:01:24.549Z,74.60
2018-10-05T02:06:53.812Z,74.80
2018-10-05T02:12:23.172Z,74.70
2018-10-05T02:17:52.521Z,74.80
2018-10-05T02:23:21.775Z,74.90
2018-10-05T02:28:52.085Z,75.00
2018-10-05T02:34:22.127Z,75.10
2018-10-05T02:39:52.243Z,75.20
2018-10-05T02:45:21.826Z,75.20
2018-10-05T02:50:54.935Z,75.30
2018-10-05T02:56:25.392Z,75.30
2018-10-05T03:02:11.427Z,75.30
2018-10-05T03:07:40.672Z,75.20
2018-10-05T03:13:09.896Z,75.30
2018-10-05T03:18:39.164Z,75.30
2018-10-05T03:24:10.493Z,75.20
2018-10-05T03:29:39.729Z,75.50
2018-10-05T03:35:21.705Z,75.40
2018-10-05T03:40:51.013Z,75.50
2018-10-05T03:46:20.396Z,76.10
2018-10-05T03:51:49.700Z,75.60
2018-10-05T03:57:19.017Z,75.60
2018-10-05T04:02:48.360Z,75.60
2018-10-05T04:08:17.676Z,75.70
2018-10-05T04:13:46.934Z,75.70
2018-10-05T04:19:16.311Z,75.60
2018-10-05T04:24:45.551Z,75.60
2018-10-05T04:30:14.961Z,75.70
2018-10-05T04:35:45.647Z,75.80
2018-10-05T04:41:15.975Z,75.70
2018-10-05T04:46:45.490Z,75.70
2018-10-05T04:52:14.817Z,75.70
2018-10-05T04:57:44.237Z,75.90
2018-10-05T05:03:15.213Z,75.80
2018-10-05T05:08:44.601Z,75.90
2018-10-05T05:14:13.935Z,76.00
2018-10-05T05:19:43.288Z,76.00
2018-10-05T05:25:13.628Z,76.00
2018-10-05T05:30:42.938Z,76.10
2018-10-05T05:36:12.283Z,76.10
2018-10-05T05:41:41.601Z,76.10
2018-10-05T05:47:10.989Z,76.20
2018-10-05T05:52:40.275Z,76.30
2018-10-05T05:58:09.529Z,76.30
2018-10-05T06:03:39.492Z,76.40
2018-10-05T06:09:10.379Z,76.40
2018-10-05T06:14:39.697Z,76.50
2018-10-05T06:20:08.973Z,76.60
2018-10-05T06:25:38.285Z,76.60
2018-10-05T06:31:07.944Z,76.70
2018-10-05T06:36:37.249Z,76.60
2018-10-05T06:42:06.681Z,76.70
2018-10-05T06:47:35.878Z,76.70
2018-10-05T06:53:05.222Z,76.80
2018-10-05T06:58:34.419Z,76.80
2018-10-05T07:04:03.696Z,76.80
2018-10-05T07:09:32.976Z,76.90
2018-10-05T07:15:02.244Z,76.80
2018-10-05T07:20:31.949Z,76.60
2018-10-05T07:26:01.333Z,76.40
2018-10-05T07:31:30.677Z,76.20
2018-10-05T07:36:59.998Z,76.10
2018-10-05T07:42:29.308Z,75.10
2018-10-05T07:47:58.581Z,75.00
2018-10-05T07:53:27.879Z,75.00
2018-10-05T07:58:57.132Z,75.00
2018-10-05T08:04:26.544Z,75.10
2018-10-05T08:09:55.859Z,74.10
2018-10-05T08:15:25.180Z,74.40
2018-10-05T08:20:54.589Z,74.10
2018-10-05T08:26:23.836Z,73.70
2018-10-05T08:31:53.172Z,73.60
2018-10-05T08:37:22.503Z,73.50
2018-10-05T08:42:51.783Z,73.10
2018-10-05T08:48:21.006Z,72.60
2018-10-05T08:53:50.354Z,72.40
2018-10-05T08:59:19.628Z,72.10
2018-10-05T09:04:48.952Z,71.60
2018-10-05T09:10:18.333Z,70.80
2018-10-05T09:15:47.656Z,70.30
2018-10-05T09:21:17.234Z,69.50
2018-10-05T09:26:46.685Z,69.60
2018-10-05T09:32:17.108Z,69.10
2018-10-05T09:37:46.649Z,68.70
2018-10-05T09:43:18.428Z,68.80
2018-10-05T09:48:47.760Z,67.80
2018-10-05T09:54:25.574Z,67.60
2018-10-05T09:59:55.008Z,67.50
2018-10-05T10:05:24.725Z,67.30
2018-10-05T10:10:54.087Z,67.10
2018-10-05T10:16:23.537Z,66.90
2018-10-05T10:21:53.868Z,66.00
2018-10-05T10:27:23.777Z,64.70
2018-10-05T10:32:54.158Z,64.60
2018-10-05T10:38:23.889Z,63.80
2018-10-05T10:43:54.408Z,63.90
2018-10-05T10:49:23.673Z,63.50
2018-10-05T10:54:53.178Z,63.30
2018-10-05T11:00:22.681Z,62.20
2018-10-05T11:05:52.056Z,61.90
2018-10-05T11:11:23.566Z,61.90
2018-10-05T11:16:53.002Z,61.10
2018-10-05T11:22:22.300Z,60.80
2018-10-05T11:27:52.062Z,61.30
2018-10-05T11:33:21.698Z,60.40
2018-10-05T11:38:53.061Z,59.90
2018-10-05T11:44:22.429Z,59.40
2018-10-05T11:49:51.705Z,58.90
2018-10-05T11:55:21.279Z,58.50
2018-10-05T12:00:50.736Z,58.50
2018-10-05T12:06:20.061Z,57.50
2018-10-05T12:11:49.459Z,57.30
2018-10-05T12:17:19.894Z,57.10
2018-10-05T12:22:49.276Z,58.00
2018-10-05T12:28:18.592Z,56.80
2018-10-05T12:33:48.015Z,56.90
2018-10-05T12:39:20.984Z,56.50
2018-10-05T12:44:52.300Z,56.90
2018-10-05T12:50:21.867Z,56.00
2018-10-05T12:55:52.166Z,55.80
2018-10-05T13:01:22.005Z,52.40
2018-10-05T13:06:51.490Z,50.30
2018-10-05T13:12:20.842Z,50.50
2018-10-05T13:17:50.436Z,51.50
2018-10-05T13:23:19.801Z,51.00
2018-10-05T13:28:49.164Z,51.70
2018-10-05T13:34:18.501Z,49.90
2018-10-05T13:39:47.768Z,49.10
2018-10-05T13:45:17.065Z,46.00
2018-10-05T13:50:46.398Z,42.60
2018-10-05T13:56:19.153Z,40.50
2018-10-05T14:01:48.420Z,38.10
2018-10-05T14:07:17.779Z,37.50
2018-10-05T14:12:47.189Z,35.40
2018-10-05T14:18:16.568Z,35.50
2018-10-05T14:23:46.036Z,33.30
2018-10-05T14:29:15.374Z,33.00
2018-10-05T14:34:44.624Z,33.30
2018-10-05T14:40:13.998Z,32.30
2018-10-05T14:45:43.336Z,31.80
2018-10-05T14:51:12.632Z,31.90
2018-10-05T14:56:41.896Z,33.30
2018-10-05T15:02:11.237Z,36.30
2018-10-05T15:07:40.560Z,37.60
2018-10-05T15:13:10.333Z,38.30
2018-10-05T15:18:39.600Z,41.10
2018-10-05T15:24:08.969Z,42.90
2018-10-05T15:29:38.294Z,44.60
2018-10-05T15:35:07.688Z,46.40
2018-10-05T15:40:37.974Z,47.40
2018-10-05T15:46:09.583Z,48.50
2018-10-05T15:51:38.913Z,49.50
2018-10-05T15:57:08.378Z,50.20
2018-10-05T16:02:37.757Z,51.00
2018-10-05T16:08:07.280Z,51.40
2018-10-05T16:13:36.553Z,51.70
2018-10-05T16:19:07.337Z,52.70
2018-10-05T16:24:40.659Z,53.50
2018-10-05T16:30:11.072Z,54.40
2018-10-05T16:35:40.497Z,55.00
2018-10-05T16:41:09.808Z,55.50
2018-10-05T16:46:42.377Z,56.00
2018-10-05T16:52:11.594Z,56.60
2018-10-05T16:57:41.015Z,57.40
2018-10-05T17:03:11.593Z,58.20
2018-10-05T17:08:43.689Z,58.80
2018-10-05T17:14:17.629Z,59.30
2018-10-05T17:19:50.551Z,60.30
2018-10-05T17:25:23.253Z,60.60
2018-10-05T17:30:52.620Z,61.00
2018-10-05T17:36:22.073Z,61.50
2018-10-05T17:41:51.382Z,62.10
2018-10-05T17:47:20.798Z,62.50
2018-10-05T17:52:51.227Z,63.10
2018-10-05T17:58:20.560Z,63.50
2018-10-05T18:03:49.906Z,64.00
2018-10-05T18:09:19.174Z,64.40
2018-10-05T18:14:50.471Z,64.80
2018-10-05T18:20:25.964Z,65.20
2018-10-05T18:25:56.341Z,65.50
2018-10-05T18:31:25.671Z,66.00
2018-10-05T18:36:55.112Z,66.40
2018-10-05T18:42:27.896Z,66.80
2018-10-05T18:47:58.417Z,67.00
2018-10-05T18:53:27.939Z,67.40
2018-10-05T18:58:57.327Z,67.70
2018-10-05T19:04:26.857Z,68.00
2018-10-05T19:09:56.327Z,68.10
2018-10-05T19:15:25.661Z,68.30
2018-10-05T19:20:55.187Z,68.60
2018-10-05T19:26:24.845Z,68.80
2018-10-05T19:31:54.211Z,69.00
2018-10-05T19:37:23.897Z,69.40
2018-10-05T19:42:56.565Z,69.60
2018-10-05T19:48:26.893Z,69.70
2018-10-05T19:53:56.697Z,70.10
2018-10-05T19:59:26.488Z,70.20
2018-10-05T20:04:58.088Z,70.40
2018-10-05T20:10:29.539Z,70.70
2018-10-05T20:15:59.197Z,70.80
2018-10-05T20:21:28.727Z,71.10
2018-10-05T20:26:58.044Z,71.50
2018-10-05T20:32:27.615Z,71.40
2018-10-05T20:37:56.818Z,71.50
2018-10-05T20:43:26.133Z,71.80
2018-10-05T20:48:55.640Z,71.90
2018-10-05T20:54:25.046Z,71.90
2018-10-05T20:59:54.295Z,72.20
2018-10-05T21:05:23.591Z,72.30
2018-10-05T21:10:52.995Z,72.30
2018-10-05T21:16:22.285Z,72.40
2018-10-05T21:21:51.629Z,72.40
2018-10-05T21:27:20.908Z,72.60
2018-10-05T21:32:51.368Z,72.80
2018-10-05T21:38:20.784Z,73.00
2018-10-05T21:43:50.254Z,73.20
2018-10-05T21:49:19.540Z,73.30
2018-10-05T21:54:48.857Z,73.50
2018-10-05T22:00:18.260Z,73.50
2018-10-05T22:05:47.622Z,73.70
2018-10-05T22:11:16.955Z,73.70
2018-10-05T22:16:46.312Z,74.00
2018-10-05T22:22:15.652Z,74.20
2018-10-05T22:27:45.113Z,74.20
2018-10-05T22:33:14.377Z,74.30
2018-10-05T22:38:43.689Z,74.60
2018-10-05T22:44:12.972Z,74.60
2018-10-05T22:49:42.257Z,74.80
2018-10-05T22:55:11.565Z,74.80
2018-10-05T23:00:40.860Z,74.80
2018-10-05T23:06:11.358Z,74.90
2018-10-05T23:11:40.671Z,75.70
2018-10-05T23:17:09.941Z,75.20
2018-10-05T23:22:39.222Z,75.30
2018-10-05T23:28:08.500Z,75.50
2018-10-05T23:33:37.841Z,76.40
2018-10-05T23:39:09.827Z,76.70
2018-10-05T23:44:39.129Z,76.80
2018-10-05T23:50:08.476Z,76.80
2018-10-05T23:55:37.937Z,76.70
